Time;durP1;ratioP1;P1;durP2;ratioP2;P2;SDS_P1;SDS_P2;PMS_P1;PMS_P2;Temp;Humidity;BMP_temperature;BMP_pressure;BME280_temperature;BME280_humidity;BME280_pressure;Samples;Min_cycle;Max_cycle;Signal;HPM_P1;HPM_P2
2022/03/25 05:59:18;;;;;;;24.23;17.37;;;;;;;6.45;57.98;153016.88;5030723;27;20581;-75
2022/03/25 06:02:03;;;;;;;24.93;17.50;;;;;;;6.46;58.03;153020.72;5048239;28;20422;-76
2022/03/25 06:04:49;;;;;;;23.50;16.83;;;;;;;6.51;57.82;153032.38;5064378;28;20437;-75
2022/03/25 06:07:38;;;;;;;23.00;16.50;;;;;;;6.57;57.79;153047.81;5081552;28;20446;-75
2022/03/25 06:10:23;;;;;;;25.83;17.90;;;;;;;6.58;57.89;153051.72;5070185;28;20426;-75
2022/03/25 06:13:09;;;;;;;24.37;16.77;;;;;;;6.61;58.15;153058.16;5081166;28;20523;-75
2022/03/25 06:15:56;;;;;;;30.93;16.57;;;;;;;6.66;57.80;153071.06;5068478;28;20947;-75
2022/03/25 06:18:41;;;;;;;24.47;16.70;;;;;;;6.71;58.12;153085.28;5057340;28;20551;-76
2022/03/25 06:21:27;;;;;;;24.20;17.40;;;;;;;6.85;57.97;153120.13;5069489;28;20421;-75
2022/03/25 06:24:13;;;;;;;23.83;17.23;;;;;;;7.05;57.34;153170.44;5082669;28;20434;-75
2022/03/25 06:26:58;;;;;;;27.80;18.20;;;;;;;7.33;56.69;153244.03;5069402;28;20770;-75
2022/03/25 06:29:44;;;;;;;26.73;17.33;;;;;;;7.62;56.08;153316.41;5068394;28;20542;-76
2022/03/25 06:32:30;;;;;;;25.00;18.17;;;;;;;7.95;55.58;153401.63;5069713;28;20445;-76
2022/03/25 06:35:16;;;;;;;25.00;16.17;;;;;;;8.31;54.70;153493.47;5069503;28;20426;-76
2022/03/25 06:38:02;;;;;;;27.87;16.33;;;;;;;8.69;53.22;153591.66;5069316;28;20477;-76
2022/03/25 06:40:47;;;;;;;27.20;18.50;;;;;;;8.99;52.45;153667.97;5068972;28;20430;-76
2022/03/25 06:43:33;;;;;;;27.37;18.50;;;;;;;9.30;51.92;153748.13;5067539;28;20799;-76
2022/03/25 06:46:18;;;;;;;27.50;18.70;;;;;;;9.50;51.50;153799.91;5067673;28;20422;-76
2022/03/25 06:49:06;;;;;;;28.17;18.40;;;;;;;9.52;52.79;153803.78;5068945;28;20440;-76
2022/03/25 06:51:51;;;;;;;26.90;18.23;;;;;;;9.67;52.60;153842.56;5067955;28;20818;-76
2022/03/25 06:54:37;;;;;;;27.83;18.70;;;;;;;9.79;52.60;153873.66;5066031;28;20782;-76
2022/03/25 06:57:23;;;;;;;25.57;18.80;;;;;;;9.99;52.16;153925.38;5063917;28;20477;-76
2022/03/25 07:00:12;;;;;;;25.27;18.40;;;;;;;10.20;51.14;153978.50;5079082;28;20939;-76
2022/03/25 07:02:58;;;;;;;27.37;17.07;;;;;;;10.23;51.22;153987.56;5066823;28;20535;-75
2022/03/25 07:05:45;;;;;;;24.87;18.47;;;;;;;10.42;50.96;154034.16;5066680;28;20418;-76
2022/03/25 07:08:31;;;;;;;39.83;21.03;;;;;;;10.65;49.85;154095.03;5076868;28;20449;-76
2022/03/25 07:11:18;;;;;;;33.43;21.10;;;;;;;10.77;50.02;154124.81;5052351;28;20568;-76
2022/03/25 07:14:07;;;;;;;27.30;20.93;;;;;;;10.80;49.58;154133.84;5047443;28;20458;-76
2022/03/25 07:16:53;;;;;;;27.17;18.90;;;;;;;10.94;49.83;154170.13;5053967;28;21074;-76
2022/03/25 07:19:38;;;;;;;23.10;17.10;;;;;;;11.31;49.35;154263.38;5053921;28;20438;-76
2022/03/25 07:22:25;;;;;;;27.87;20.13;;;;;;;11.69;48.58;154361.94;5035040;28;20466;-76
2022/03/25 07:25:11;;;;;;;33.70;19.57;;;;;;;11.87;47.84;154407.28;5048521;28;20454;-76
2022/03/25 07:27:56;;;;;;;31.50;18.70;;;;;;;12.01;47.72;154444.91;5045772;28;20470;-76
2022/03/25 07:30:41;;;;;;;27.00;18.83;;;;;;;12.14;47.41;154477.28;5037040;28;20490;-76
2022/03/25 07:33:26;;;;;;;21.83;17.50;;;;;;;12.19;48.08;154491.56;5034297;28;20461;-76
2022/03/25 07:36:12;;;;;;;23.17;18.40;;;;;;;12.54;47.76;154579.72;5052605;28;20454;-76
2022/03/25 07:38:59;;;;;;;34.50;26.10;;;;;;;12.71;46.69;154625.09;5045616;28;20714;-76
2022/03/25 07:41:44;;;;;;;24.83;19.30;;;;;;;12.97;46.75;154689.97;5045077;28;20435;-77
2022/03/25 07:44:31;;;;;;;23.37;20.07;;;;;;;12.92;46.37;154678.25;5034055;28;20830;-76
2022/03/25 07:47:16;;;;;;;24.37;19.07;;;;;;;12.91;46.83;154675.69;5062016;28;20462;-76
2022/03/25 07:50:02;;;;;;;25.33;19.13;;;;;;;12.97;46.06;154691.28;5044749;28;20446;-76
2022/03/25 07:52:48;;;;;;;23.67;18.03;;;;;;;13.01;45.95;154701.63;5043371;28;20972;-76
2022/03/25 07:55:40;;;;;;;24.23;19.50;;;;;;;13.42;44.97;154808.06;5047253;28;20451;-76
2022/03/25 07:58:28;;;;;;;24.53;20.93;;;;;;;13.80;44.10;154904.09;5032310;28;20502;-76
2022/03/25 08:01:13;;;;;;;27.30;20.57;;;;;;;13.85;43.42;154917.06;5037111;28;20513;-77
2022/03/25 08:03:59;;;;;;;28.50;20.73;;;;;;;13.72;42.39;154884.63;5043146;28;20473;-76
2022/03/25 08:06:45;;;;;;;22.33;18.40;;;;;;;13.67;42.90;154870.34;5053751;28;20528;-76
2022/03/25 08:09:31;;;;;;;27.00;20.47;;;;;;;14.01;42.53;154958.63;5054659;28;21011;-77
2022/03/25 08:12:18;;;;;;;27.23;19.63;;;;;;;14.12;43.17;154985.88;5040200;28;20473;-75
2022/03/25 08:15:06;;;;;;;24.63;19.10;;;;;;;14.24;42.08;155018.38;5050606;28;20453;-76
2022/03/25 08:17:55;;;;;;;24.17;19.93;;;;;;;14.32;41.34;155039.16;5041542;28;20486;-76
2022/03/25 08:20:42;;;;;;;26.60;20.00;;;;;;;14.35;41.78;155046.97;5041461;28;20486;-76
2022/03/25 08:29:36;;;;;;;23.17;20.17;;;;;;;14.63;41.18;155119.72;5046134;28;20454;-76
2022/03/25 08:32:21;;;;;;;28.43;20.03;;;;;;;15.13;40.66;155247.03;5036788;28;20831;-76
2022/03/25 08:35:08;;;;;;;30.17;19.87;;;;;;;15.11;40.83;155243.16;5046254;28;20453;-76
2022/03/25 08:37:54;;;;;;;23.83;17.60;;;;;;;14.79;41.29;155158.69;5032301;28;20814;-76
2022/03/25 08:40:40;;;;;;;25.37;20.70;;;;;;;14.81;41.15;155165.19;5041205;28;20556;-76
2022/03/25 08:43:26;;;;;;;22.90;19.50;;;;;;;14.68;42.06;155130.09;5053564;28;20573;-76
2022/03/25 08:46:13;;;;;;;26.37;20.40;;;;;;;15.16;41.48;155254.81;5049102;28;20500;-75
2022/03/25 08:48:58;;;;;;;25.90;20.60;;;;;;;15.78;39.67;155414.72;5045542;28;20801;-75
2022/03/25 08:51:44;;;;;;;24.67;18.37;;;;;;;15.72;39.19;155400.47;5032385;28;20431;-75
2022/03/25 08:54:29;;;;;;;22.67;18.80;;;;;;;15.44;39.70;155327.59;5042674;28;20462;-75
2022/03/25 08:57:14;;;;;;;23.40;19.00;;;;;;;14.67;41.52;155127.53;5048023;28;20462;-75
2022/03/25 09:00:00;;;;;;;24.53;20.40;;;;;;;15.21;40.70;155267.81;5051915;28;20972;-75
2022/03/25 09:02:47;;;;;;;25.70;20.27;;;;;;;15.58;39.92;155364.03;5037350;28;20466;-75
2022/03/25 09:05:34;;;;;;;26.53;20.90;;;;;;;15.27;39.76;155283.44;5032736;28;20436;-76
2022/03/25 09:08:10;;;;;;;24.63;20.60;;;;;;;15.41;39.31;155318.53;5032966;28;20490;-75
2022/03/25 09:10:47;;;;;;;29.07;20.60;;;;;;;15.49;39.46;155339.38;5033971;28;20458;-75
2022/03/25 09:13:22;;;;;;;25.40;20.77;;;;;;;15.51;39.55;155344.56;5053060;28;20450;-75
2022/03/25 09:15:58;;;;;;;24.90;20.23;;;;;;;15.34;39.63;155301.59;5049892;28;20934;-75
2022/03/25 09:18:35;;;;;;;25.30;19.83;;;;;;;14.96;39.39;155204.13;5050000;28;20478;-75
2022/03/25 09:21:10;;;;;;;31.40;20.30;;;;;;;15.27;39.04;155283.44;5042308;28;20447;-75
2022/03/25 09:23:46;;;;;;;28.57;20.10;;;;;;;14.99;39.75;155210.63;5016181;28;20471;-75
2022/03/25 09:26:21;;;;;;;28.70;21.40;;;;;;;14.96;39.95;155202.81;5036815;28;20539;-75
2022/03/25 09:28:57;;;;;;;27.80;20.07;;;;;;;15.04;40.07;155223.63;5031031;28;20447;-75
2022/03/25 09:31:33;;;;;;;26.20;19.10;;;;;;;15.61;38.72;155371.84;5039574;28;20869;-75
2022/03/25 09:37:03;;;;;;;27.57;21.50;;;;;;;15.12;39.24;155244.41;5038579;28;20459;-75
2022/03/25 09:39:39;;;;;;;26.37;19.97;;;;;;;15.16;38.71;155256.13;5049368;28;20462;-75
2022/03/25 09:42:15;;;;;;;30.87;20.47;;;;;;;15.15;38.59;155252.22;5033643;28;20458;-75
2022/03/25 09:44:50;;;;;;;29.10;21.30;;;;;;;15.31;38.83;155293.78;5050932;28;21193;-75
2022/03/25 09:47:26;;;;;;;30.50;22.40;;;;;;;15.41;37.72;155319.78;5049969;28;20450;-75
2022/03/25 09:50:05;;;;;;;30.53;20.77;;;;;;;14.93;39.04;155195.06;5048357;28;20525;-75
2022/03/25 09:52:42;;;;;;;30.37;22.80;;;;;;;15.01;37.93;155215.88;5059072;28;20537;-75
2022/03/25 09:55:18;;;;;;;27.47;21.20;;;;;;;15.10;36.92;155239.22;5029153;28;20457;-75
2022/03/25 09:57:54;;;;;;;25.93;19.40;;;;;;;14.97;35.79;155205.44;5033693;28;20972;-75
2022/03/25 10:00:30;;;;;;;27.93;21.30;;;;;;;14.83;35.69;155169.06;5047972;28;20925;-75
2022/03/25 10:03:05;;;;;;;30.67;21.40;;;;;;;14.53;34.81;155093.72;5056035;28;20867;-75
2022/03/25 10:05:54;;;;;;;27.20;20.07;;;;;;;14.50;35.74;155084.66;5039394;28;20557;-75
2022/03/25 10:08:30;;;;;;;34.30;20.63;;;;;;;14.35;36.46;155045.72;5049247;28;20882;-74
2022/03/25 10:11:22;;;;;;;29.90;21.93;;;;;;;14.42;37.31;155065.19;5038210;28;20443;-75
2022/03/25 10:14:15;;;;;;;28.10;20.70;;;;;;;14.61;37.78;155113.25;5044773;28;20460;-75
2022/03/25 10:16:52;;;;;;;31.83;22.60;;;;;;;14.61;38.06;155113.25;5029680;28;20448;-75
2022/03/25 10:19:28;;;;;;;34.87;23.10;;;;;;;14.39;38.24;155057.38;5024050;28;20478;-75
2022/03/25 10:22:06;;;;;;;28.63;21.53;;;;;;;14.30;38.23;155033.94;5045928;28;20937;-74
2022/03/25 10:24:43;;;;;;;29.07;21.70;;;;;;;14.25;38.28;155020.94;5048356;28;20459;-75
2022/03/25 10:27:28;;;;;;;29.00;21.67;;;;;;;14.34;38.88;155044.41;5057210;28;20957;-75
2022/03/25 10:30:05;;;;;;;28.67;23.00;;;;;;;14.38;39.02;155054.75;5049849;28;20455;-75
2022/03/25 10:32:46;;;;;;;29.23;21.33;;;;;;;14.36;39.20;155049.59;5016305;28;20446;-75
2022/03/25 10:35:32;;;;;;;29.40;21.50;;;;;;;14.51;39.16;155088.53;5029218;28;20443;-75
2022/03/25 10:38:24;;;;;;;30.13;22.23;;;;;;;14.51;38.64;155087.22;5050553;28;20455;-75
2022/03/25 10:41:00;;;;;;;27.83;19.40;;;;;;;14.48;37.54;155080.72;5038710;28;20446;-75
2022/03/25 10:43:35;;;;;;;36.10;21.97;;;;;;;14.49;37.67;155083.34;5033511;28;20455;-75
2022/03/25 10:46:27;;;;;;;31.30;22.33;;;;;;;14.59;38.92;155108.00;5028293;28;20737;-75
2022/03/25 10:49:05;;;;;;;31.60;21.50;;;;;;;14.86;39.07;155176.84;5026443;28;20846;-75
2022/03/25 10:51:42;;;;;;;36.13;22.90;;;;;;;14.88;38.47;155182.09;5047812;28;20477;-75
2022/03/25 10:54:23;;;;;;;35.73;22.10;;;;;;;14.75;37.56;155148.25;5047571;28;20554;-76
2022/03/25 10:57:00;;;;;;;30.90;21.20;;;;;;;14.76;38.53;155150.88;5033278;28;20432;-76
2022/03/25 10:59:36;;;;;;;29.97;21.93;;;;;;;14.89;36.90;155184.66;5032298;28;20861;-76
2022/03/25 11:02:12;;;;;;;28.47;21.67;;;;;;;14.87;37.64;155179.47;5050775;28;20954;-76
2022/03/25 11:04:47;;;;;;;30.00;21.90;;;;;;;14.97;36.40;155205.44;5032946;28;20987;-76
2022/03/25 11:07:24;;;;;;;30.53;21.87;;;;;;;14.91;37.32;155189.84;5043549;28;20454;-75
2022/03/25 11:10:01;;;;;;;32.30;22.10;;;;;;;15.04;37.45;155223.63;5049461;28;20587;-75
2022/03/25 11:12:37;;;;;;;28.43;20.20;;;;;;;15.01;36.20;155215.88;5041742;28;20442;-75
2022/03/25 11:15:14;;;;;;;28.80;20.37;;;;;;;15.01;36.09;155215.88;5047334;28;20505;-75
2022/03/25 11:17:49;;;;;;;31.73;22.30;;;;;;;15.14;36.06;155249.66;5046717;28;20450;-75
2022/03/25 11:20:27;;;;;;;28.00;19.23;;;;;;;15.32;36.41;155295.09;5045723;28;20569;-75
2022/03/25 11:23:09;;;;;;;27.40;19.07;;;;;;;15.46;36.37;155332.81;5052362;28;20447;-75
2022/03/25 11:25:47;;;;;;;30.60;19.97;;;;;;;15.79;34.72;155418.63;5060714;28;20451;-75
2022/03/25 11:28:29;;;;;;;34.40;20.93;;;;;;;15.64;34.77;155379.66;5040475;28;20944;-75
2022/03/25 11:31:07;;;;;;;27.33;21.60;;;;;;;15.36;34.68;155306.78;5064673;28;20454;-75
2022/03/25 11:34:10;;;;;;;25.17;20.57;;;;;;;15.27;35.23;155283.44;5049642;28;20461;-75
2022/03/25 11:37:16;;;;;;;26.90;19.97;;;;;;;15.22;33.78;155270.44;4997775;28;20852;-74
2022/03/25 11:40:22;;;;;;;24.30;19.20;;;;;;;15.37;33.56;155309.41;5044655;28;20514;-76
2022/03/25 11:43:01;;;;;;;22.17;18.07;;;;;;;15.44;32.76;155327.59;5046576;28;20449;-76
2022/03/25 11:45:38;;;;;;;25.77;19.93;;;;;;;15.51;33.77;155345.88;5033899;28;20474;-76
2022/03/25 11:48:37;;;;;;;30.67;20.07;;;;;;;15.69;33.47;155391.34;5041018;28;20453;-76
2022/03/25 11:51:40;;;;;;;27.10;18.93;;;;;;;15.55;33.33;155356.25;5024449;28;20466;-76
2022/03/25 11:54:38;;;;;;;25.67;19.23;;;;;;;15.56;33.62;155358.84;5030277;28;20458;-77
2022/03/25 11:57:23;;;;;;;27.30;19.30;;;;;;;15.47;33.35;155335.44;5049598;28;20467;-77
2022/03/25 12:00:02;;;;;;;24.77;17.97;;;;;;;15.48;33.71;155338.06;5063632;28;20478;-74
2022/03/25 12:02:40;;;;;;;28.13;20.90;;;;;;;15.54;32.78;155352.38;5042965;28;20435;-75
2022/03/25 12:05:38;;;;;;;31.47;19.20;;;;;;;15.67;33.33;155387.41;5032764;28;20484;-74
2022/03/25 12:08:24;;;;;;;25.83;19.90;;;;;;;15.74;33.41;155405.66;5051315;28;20424;-74
2022/03/25 12:11:01;;;;;;;29.30;19.60;;;;;;;15.82;32.84;155426.44;5050586;28;20443;-75
2022/03/25 12:14:10;;;;;;;25.50;18.17;;;;;;;15.78;33.25;155416.03;5049051;28;20446;-75
2022/03/25 12:17:04;;;;;;;25.10;19.23;;;;;;;15.95;32.86;155457.63;5031734;28;20440;-77
2022/03/25 12:19:47;;;;;;;26.83;17.77;;;;;;;16.06;32.46;155486.25;5026220;28;20482;-74
2022/03/25 12:22:32;;;;;;;24.13;18.70;;;;;;;16.09;31.06;155494.06;5037112;28;20530;-75
2022/03/25 12:25:20;;;;;;;23.80;18.10;;;;;;;16.11;31.85;155499.25;5037360;28;20443;-76
2022/03/25 12:27:56;;;;;;;22.80;17.43;;;;;;;16.36;30.74;155565.56;5049413;28;20780;-75
2022/03/25 12:30:36;;;;;;;22.70;16.60;;;;;;;16.29;31.40;155546.06;5050221;28;20454;-75
2022/03/25 12:33:15;;;;;;;23.13;17.07;;;;;;;16.19;31.16;155520.03;5045263;28;20428;-75
2022/03/25 12:35:50;;;;;;;24.43;19.57;;;;;;;16.35;31.65;155561.66;5026254;28;20524;-74
2022/03/25 12:38:26;;;;;;;23.63;18.20;;;;;;;16.29;31.64;155546.06;5034974;28;20435;-74
2022/03/25 12:41:01;;;;;;;25.03;18.20;;;;;;;16.35;32.05;155561.66;5018584;28;20498;-75
2022/03/25 12:43:37;;;;;;;25.10;18.90;;;;;;;16.49;32.54;155598.09;5053417;28;20532;-74
2022/03/25 12:46:14;;;;;;;25.40;18.90;;;;;;;16.59;32.89;155624.16;5034075;28;20455;-74
2022/03/25 12:48:51;;;;;;;29.40;19.70;;;;;;;16.58;32.01;155621.53;5041727;28;20461;-75
2022/03/25 12:51:27;;;;;;;25.40;18.83;;;;;;;16.46;32.51;155590.28;5029785;28;20463;-75
2022/03/25 12:54:03;;;;;;;24.00;18.70;;;;;;;16.44;32.47;155585.09;5020989;28;20486;-76
2022/03/25 12:56:38;;;;;;;23.40;19.27;;;;;;;16.38;32.35;155569.47;5041428;28;20478;-75
2022/03/25 12:59:14;;;;;;;26.27;18.97;;;;;;;16.44;32.96;155585.09;5013501;28;20467;-76
2022/03/25 13:01:50;;;;;;;26.83;20.70;;;;;;;16.44;32.78;155585.09;5036007;28;20435;-75
2022/03/25 13:04:30;;;;;;;28.40;21.80;;;;;;;16.40;32.95;155575.97;5027402;28;20888;-75
2022/03/25 13:07:10;;;;;;;27.83;21.13;;;;;;;16.23;33.19;155530.47;5021174;28;20447;-75
2022/03/25 13:09:53;;;;;;;27.83;20.13;;;;;;;16.27;33.81;155540.84;5029601;28;21773;-75
2022/03/25 13:12:29;;;;;;;27.27;20.63;;;;;;;16.34;32.60;155559.06;5051733;28;20478;-75
2022/03/25 13:15:06;;;;;;;25.07;18.87;;;;;;;16.34;31.45;155560.34;5039314;28;20566;-75
2022/03/25 13:17:46;;;;;;;23.93;17.10;;;;;;;16.55;30.95;155612.47;5059019;28;20982;-74
2022/03/25 13:20:24;;;;;;;25.80;20.10;;;;;;;16.65;31.15;155638.47;5031073;28;20470;-75
2022/03/25 13:23:03;;;;;;;24.73;18.33;;;;;;;16.50;31.76;155600.66;5058161;28;20447;-75
2022/03/25 13:25:40;;;;;;;24.57;18.50;;;;;;;16.58;31.10;155621.53;5037396;28;20741;-77
2022/03/25 13:28:17;;;;;;;24.37;18.67;;;;;;;16.61;30.99;155629.34;5047865;28;20545;-77
2022/03/25 13:30:54;;;;;;;28.00;21.00;;;;;;;16.51;31.42;155603.28;5049388;28;20455;-76
2022/03/25 13:33:31;;;;;;;27.40;19.73;;;;;;;16.52;31.95;155604.59;5043413;28;20537;-77
2022/03/25 13:36:08;;;;;;;23.53;19.40;;;;;;;16.51;31.72;155603.28;5051848;28;20447;-76
2022/03/25 13:38:46;;;;;;;31.93;20.00;;;;;;;16.62;31.88;155630.66;5050388;28;20451;-77
2022/03/25 13:41:24;;;;;;;27.93;20.83;;;;;;;16.59;32.52;155622.84;5054288;28;20497;-76
2022/03/25 13:44:05;;;;;;;26.20;21.07;;;;;;;16.57;32.28;155618.97;5039600;28;20455;-77
2022/03/25 13:46:41;;;;;;;26.17;21.17;;;;;;;16.54;31.80;155609.84;5030167;28;20447;-77
2022/03/25 13:49:17;;;;;;;24.97;19.20;;;;;;;16.53;32.17;155608.53;5036688;28;20454;-76
2022/03/25 13:52:05;;;;;;;26.77;20.00;;;;;;;16.56;33.34;155616.34;5067596;28;20462;-76
2022/03/25 13:54:42;;;;;;;30.10;23.40;;;;;;;16.48;32.89;155594.16;5029176;28;20451;-76
2022/03/25 13:57:18;;;;;;;28.00;21.60;;;;;;;16.50;33.06;155600.66;5032152;28;20467;-76
2022/03/25 14:00:07;;;;;;;28.80;20.93;;;;;;;16.69;31.96;155650.16;5041020;28;20484;-77
2022/03/25 14:02:49;;;;;;;22.33;18.77;;;;;;;16.62;30.98;155631.97;5073233;28;20874;-77
2022/03/25 14:05:26;;;;;;;27.40;20.57;;;;;;;16.68;31.70;155646.28;5031494;28;20482;-77
2022/03/25 14:08:04;;;;;;;25.70;19.90;;;;;;;16.74;31.47;155661.88;5063044;28;20460;-76
2022/03/25 14:10:53;;;;;;;25.73;19.27;;;;;;;16.85;30.63;155691.81;5033015;28;20438;-76
2022/03/25 14:13:29;;;;;;;27.10;20.23;;;;;;;16.76;30.56;155668.38;5047746;28;20542;-76
2022/03/25 14:16:14;;;;;;;24.83;18.70;;;;;;;16.77;30.24;155670.97;5045131;28;20451;-76
2022/03/25 14:18:51;;;;;;;24.40;20.30;;;;;;;16.72;29.98;155656.66;5038336;28;20439;-76
2022/03/25 14:21:29;;;;;;;23.10;18.20;;;;;;;16.68;30.65;155647.53;5041091;28;20483;-76
2022/03/25 14:26:56;;;;;;;25.90;19.93;;;;;;;16.64;31.43;155635.84;5040596;28;20448;-77
2022/03/25 14:29:32;;;;;;;25.13;18.40;;;;;;;16.85;31.20;155691.81;5034499;28;20458;-77
2022/03/25 14:32:08;;;;;;;29.40;19.50;;;;;;;16.80;30.96;155678.78;5036330;28;20517;-77
2022/03/25 14:34:45;;;;;;;24.20;19.70;;;;;;;16.81;30.85;155680.09;5046330;28;20533;-74
2022/03/25 14:37:23;;;;;;;27.70;20.70;;;;;;;16.73;30.77;155659.28;5041337;28;20447;-75
2022/03/25 14:40:00;;;;;;;23.53;19.33;;;;;;;16.75;31.02;155665.78;5027631;28;20502;-76
2022/03/25 14:42:36;;;;;;;26.43;20.00;;;;;;;16.88;31.59;155698.31;5036936;28;20509;-75
2022/03/25 14:45:13;;;;;;;25.07;19.53;;;;;;;16.82;31.03;155684.00;5049285;28;20450;-75
2022/03/25 14:47:51;;;;;;;24.37;19.57;;;;;;;16.96;31.44;155720.44;5047174;28;20457;-75
2022/03/25 14:50:26;;;;;;;23.33;18.30;;;;;;;16.78;30.84;155673.59;5052406;28;20435;-75
2022/03/25 14:53:02;;;;;;;23.00;18.43;;;;;;;16.76;31.55;155667.09;5051664;28;20462;-74
2022/03/25 14:55:39;;;;;;;24.50;18.70;;;;;;;16.78;30.95;155673.59;5041153;28;20525;-77
2022/03/25 14:58:15;;;;;;;24.17;19.27;;;;;;;16.78;31.14;155673.59;5050864;28;20547;-77
2022/03/25 15:00:50;;;;;;;23.67;18.50;;;;;;;16.88;30.59;155699.63;5035311;28;20459;-76
2022/03/25 15:03:26;;;;;;;23.00;17.63;;;;;;;16.93;30.28;155711.31;5041561;28;20458;-76
2022/03/25 15:06:02;;;;;;;25.13;18.97;;;;;;;16.87;30.44;155695.69;5047894;28;20450;-75
2022/03/25 15:08:38;;;;;;;31.43;19.90;;;;;;;16.88;30.20;155698.31;5035914;28;20524;-76
2022/03/25 15:11:15;;;;;;;23.27;18.43;;;;;;;16.84;29.99;155689.19;5030524;28;20553;-76
2022/03/25 15:13:51;;;;;;;25.33;18.30;;;;;;;16.77;29.96;155670.97;5046302;28;20896;-75
2022/03/25 15:16:27;;;;;;;23.20;18.80;;;;;;;16.82;29.38;155684.00;5047682;28;20442;-75
2022/03/25 15:19:03;;;;;;;23.77;18.00;;;;;;;16.81;29.89;155680.09;5056101;28;20442;-76
2022/03/25 15:21:38;;;;;;;23.90;19.33;;;;;;;16.89;29.94;155702.19;5044184;28;20471;-77
2022/03/25 15:24:13;;;;;;;24.83;19.93;;;;;;;16.84;29.99;155689.19;5047550;28;20538;-76
2022/03/25 15:26:50;;;;;;;25.60;20.83;;;;;;;16.76;29.37;155668.38;5064793;28;20874;-75
2022/03/25 15:35:13;;;;;;;24.33;19.67;;;;;;;16.78;29.51;155673.59;5051341;28;20450;-75
2022/03/25 15:37:48;;;;;;;26.63;20.30;;;;;;;16.80;30.31;155677.47;5063974;28;20438;-75
2022/03/25 15:40:24;;;;;;;25.17;20.00;;;;;;;16.75;30.53;155664.47;5039659;28;20475;-76
2022/03/25 15:43:01;;;;;;;29.23;20.47;;;;;;;16.75;30.53;155665.78;5037373;28;20443;-76
2022/03/25 15:45:36;;;;;;;27.63;22.10;;;;;;;16.78;31.53;155673.59;5043348;28;20447;-75
2022/03/25 15:48:12;;;;;;;29.57;22.87;;;;;;;16.69;31.11;155650.16;5036549;28;20519;-77
2022/03/25 15:50:47;;;;;;;32.13;25.77;;;;;;;16.64;31.25;155635.84;5047550;28;20511;-75
2022/03/25 15:53:25;;;;;;;29.50;25.30;;;;;;;16.65;31.37;155639.78;5056466;28;20961;-76
2022/03/25 15:56:01;;;;;;;30.27;21.83;;;;;;;16.73;30.88;155660.53;5042948;28;20438;-76
2022/03/25 15:58:38;;;;;;;25.30;21.00;;;;;;;16.70;31.29;155652.78;5035393;28;20552;-76
2022/03/25 16:01:13;;;;;;;25.73;19.83;;;;;;;16.68;31.16;155647.53;5033502;28;20463;-76
2022/03/25 16:03:49;;;;;;;25.80;20.57;;;;;;;16.61;30.58;155629.34;5051144;28;20450;-76
2022/03/25 16:06:24;;;;;;;25.10;20.20;;;;;;;16.56;31.03;155616.34;5040935;28;20442;-76
2022/03/25 16:09:00;;;;;;;25.67;20.37;;;;;;;16.53;31.08;155608.53;5047759;28;20450;-76
2022/03/25 16:11:35;;;;;;;23.17;19.20;;;;;;;16.57;31.12;155618.97;5050972;28;20449;-76
2022/03/25 16:14:13;;;;;;;31.60;20.83;;;;;;;16.51;31.13;155603.28;5039987;28;20868;-76
2022/03/25 16:16:48;;;;;;;28.23;21.23;;;;;;;16.51;31.25;155603.28;5023916;28;20443;-76
2022/03/25 16:19:24;;;;;;;27.93;21.50;;;;;;;16.46;30.94;155590.28;5054087;28;20452;-76
2022/03/25 16:22:00;;;;;;;30.00;19.80;;;;;;;16.40;31.44;155574.66;5025697;28;20471;-76
2022/03/25 16:24:35;;;;;;;29.20;20.33;;;;;;;16.38;31.13;155570.78;5060395;28;20434;-76
2022/03/25 16:27:11;;;;;;;24.77;20.00;;;;;;;16.37;31.17;155566.84;5044553;28;20447;-76
2022/03/25 16:29:48;;;;;;;24.70;19.33;;;;;;;16.36;31.36;155565.56;5034645;28;20439;-76
2022/03/25 16:32:24;;;;;;;23.93;19.30;;;;;;;16.32;31.62;155553.84;5049073;28;20522;-76
2022/03/25 16:34:59;;;;;;;24.80;18.90;;;;;;;16.25;31.69;155535.66;5045803;28;20446;-77
2022/03/25 16:37:36;;;;;;;24.93;18.50;;;;;;;16.23;31.49;155531.75;5036851;28;20770;-76
2022/03/25 16:40:14;;;;;;;26.07;20.10;;;;;;;16.17;31.77;155514.88;5036470;28;20474;-76
2022/03/25 16:42:50;;;;;;;23.87;18.23;;;;;;;16.14;31.87;155507.06;5043442;28;20486;-76
2022/03/25 16:45:30;;;;;;;25.90;18.93;;;;;;;16.11;31.68;155499.25;5046927;28;20443;-76
2022/03/25 16:48:06;;;;;;;24.70;19.73;;;;;;;16.08;31.67;155492.75;5030809;28;20590;-76
2022/03/25 16:50:42;;;;;;;27.10;20.40;;;;;;;16.06;31.59;155486.25;5029703;28;20952;-76
2022/03/25 16:53:18;;;;;;;27.17;21.10;;;;;;;15.98;32.45;155466.75;5038439;28;20443;-75
2022/03/25 16:55:54;;;;;;;29.00;22.83;;;;;;;15.98;32.23;155465.44;5042295;28;20595;-76
2022/03/25 16:58:29;;;;;;;26.70;21.40;;;;;;;15.90;32.47;155444.63;5047176;28;20482;-77
2022/03/25 17:01:07;;;;;;;27.10;20.17;;;;;;;15.86;32.36;155435.50;5037260;28;20847;-76
2022/03/25 17:03:48;;;;;;;25.93;18.63;;;;;;;15.80;32.18;155419.94;5059876;28;20467;-76
2022/03/25 17:06:25;;;;;;;28.13;20.43;;;;;;;15.73;32.75;155403.03;5049733;28;20541;-76
2022/03/25 17:09:01;;;;;;;25.93;18.77;;;;;;;15.71;32.45;155396.53;5049565;28;20462;-76
2022/03/25 17:11:36;;;;;;;23.63;19.23;;;;;;;15.65;32.66;155382.22;5038182;28;20835;-76
2022/03/25 17:14:12;;;;;;;28.17;18.57;;;;;;;15.63;32.71;155377.03;5047913;28;20466;-76
2022/03/25 17:16:50;;;;;;;26.90;20.93;;;;;;;15.55;33.13;155356.25;5058912;28;20435;-76
2022/03/25 17:19:26;;;;;;;27.93;19.70;;;;;;;15.50;33.26;155343.25;5034180;28;20450;-76
2022/03/25 17:22:01;;;;;;;26.27;19.47;;;;;;;15.47;33.23;155335.44;5029239;28;20985;-76
2022/03/25 17:24:38;;;;;;;26.67;19.60;;;;;;;15.42;33.50;155322.41;5048392;28;20443;-76
2022/03/25 17:27:14;;;;;;;27.03;19.30;;;;;;;15.35;33.74;155304.22;5031884;28;20462;-76
2022/03/25 17:29:50;;;;;;;27.93;20.30;;;;;;;15.30;33.85;155291.22;5048759;28;20446;-76
2022/03/25 17:32:27;;;;;;;28.00;19.03;;;;;;;15.20;33.87;155265.19;5033229;28;20508;-76
2022/03/25 17:35:03;;;;;;;30.87;20.43;;;;;;;15.19;33.73;155262.63;5030492;28;20553;-76
2022/03/25 17:37:38;;;;;;;23.53;18.67;;;;;;;15.16;33.65;155256.13;5050329;28;20538;-76
2022/03/25 17:40:14;;;;;;;28.30;18.70;;;;;;;15.10;33.54;155239.22;5049297;28;20857;-75
2022/03/25 17:42:49;;;;;;;27.20;19.17;;;;;;;15.05;33.97;155226.22;5031504;28;20521;-76
2022/03/25 17:45:25;;;;;;;27.50;19.40;;;;;;;14.99;33.89;155211.94;5020670;28;20560;-75
2022/03/25 17:48:04;;;;;;;29.90;20.77;;;;;;;14.92;33.63;155192.47;5044324;28;20443;-75
2022/03/25 17:50:39;;;;;;;29.93;20.87;;;;;;;14.89;34.16;155184.66;5029851;28;20443;-76
2022/03/25 17:53:15;;;;;;;24.60;18.60;;;;;;;14.81;34.38;155165.19;5031401;28;20490;-76
2022/03/25 17:55:51;;;;;;;26.50;20.03;;;;;;;14.80;34.13;155161.31;5051004;28;20486;-76
2022/03/25 17:58:27;;;;;;;24.70;18.20;;;;;;;14.79;34.37;155158.69;5048344;28;20957;-76
2022/03/25 18:01:03;;;;;;;27.27;20.43;;;;;;;14.70;34.14;155136.59;5038921;28;20464;-76
2022/03/25 18:03:41;;;;;;;26.43;17.83;;;;;;;14.68;34.14;155130.09;5047735;28;20797;-76
2022/03/25 18:06:16;;;;;;;25.43;18.57;;;;;;;14.63;34.31;155119.72;5039167;28;20435;-76
2022/03/25 18:08:53;;;;;;;24.80;19.07;;;;;;;14.60;34.14;155110.63;5024607;28;21006;-76
2022/03/25 18:11:28;;;;;;;24.40;19.30;;;;;;;14.55;34.34;155098.94;5058278;28;20439;-76
2022/03/25 18:14:04;;;;;;;27.37;19.40;;;;;;;14.53;34.23;155092.47;5037112;28;20459;-76
2022/03/25 18:16:40;;;;;;;28.17;21.23;;;;;;;14.55;33.99;155097.63;5052118;28;20529;-75
2022/03/25 18:19:20;;;;;;;31.07;20.60;;;;;;;14.54;34.08;155095.03;5026892;28;20455;-76
2022/03/25 18:21:57;;;;;;;28.60;20.63;;;;;;;14.57;33.73;155104.13;5032882;28;20466;-76
2022/03/25 18:24:34;;;;;;;25.67;19.97;;;;;;;14.46;34.10;155075.53;5025207;28;20514;-76